^^
Grace C. Lehan Memorial Weather Station Historical Data
Daily Summary for February 4, 2021 Units:  English    Metric   Both
Daily Weekly Monthly Yearly
  High: Low: Average:
Temperature: 79.9 °F 55.7 °F 66.7 °F
Dew Point: 63 °F 53.4 °F 58.3 °F
Humidity: 93% 50% 76%
Wind Speed: 5mph 0mph 0.7mph
Wind Gust: 12mph - -
Wind- - WNW
Pressure: 30.00 in 29.87 in -
Precipitation: 0.00 in    
 
 
Tabular Data for February 4, 2021
Time Temperature Dew Point Pressure Wind Wind Speed Wind Gust Humidity Rainfall Rate (Hourly) solar
00:09 62.4 °F 56.5 °F 29.99 in WNW 2.7 mph 9 mph 81% 0.00 in 0 W/m2
00:14 62.3 °F 56.4 °F 29.99 in WNW 0.9 mph 9 mph 81% 0.00 in 0 W/m2
00:19 62.3 °F 56.4 °F 29.99 in WNW 1.5 mph 9 mph 81% 0.00 in 0 W/m2
00:24 62.2 °F 56.3 °F 29.99 in WNW 0.5 mph 9 mph 81% 0.00 in 0 W/m2
00:29 62.1 °F 56.2 °F 29.99 in WNW 0.6 mph 9 mph 80.9% 0.00 in 0 W/m2
00:34 62.1 °F 55.8 °F 29.99 in WNW 0.7 mph 9 mph 80% 0.00 in 0 W/m2
00:39 62 °F 55.7 °F 29.99 in WNW 0.6 mph 4 mph 80% 0.00 in 0 W/m2
00:44 61.9 °F 55.9 °F 29.99 in WNW 0.7 mph 5 mph 80.7% 0.00 in 0 W/m2
00:49 61.7 °F 55.9 °F 29.99 in WNW 0.2 mph 5 mph 81% 0.00 in 0 W/m2
00:54 61.6 °F 55.7 °F 29.99 in WNW 0.2 mph 5 mph 81% 0.00 in 0 W/m2
00:59 61.5 °F 55.6 °F 29.99 in WNW 0.2 mph 5 mph 81% 0.00 in 0 W/m2
01:04 61.4 °F 55.5 °F 29.99 in Calm   5 mph 81% 0.00 in 0 W/m2
01:09 61.3 °F 55.4 °F 29.99 in Calm     80.9% 0.00 in 0 W/m2
01:14 61.2 °F 55 °F 29.99 in Calm     80% 0.00 in 0 W/m2
01:19 61.1 °F 54.9 °F 29.99 in Calm     80% 0.00 in 0 W/m2
01:24 61.1 °F 54.9 °F 29.99 in Calm     80% 0.00 in 0 W/m2
01:29 61.1 °F 54.9 °F 29.99 in Calm   1 mph 80% 0.00 in 0 W/m2
01:34 61 °F 54.8 °F 29.99 in Calm   1 mph 80% 0.00 in 0 W/m2
01:39 61 °F 54.8 °F 29.98 in Calm   1 mph 80.1% 0.00 in 0 W/m2
01:44 61 °F 55.1 °F 29.98 in Calm   1 mph 81% 0.00 in 0 W/m2
01:49 60.9 °F 55.2 °F 29.98 in Calm   1 mph 81.7% 0.00 in 0 W/m2
01:54 60.7 °F 54.9 °F 29.98 in Calm   1 mph 81% 0.00 in 0 W/m2
01:59 60.5 °F 54.9 °F 29.98 in Calm   1 mph 81.5% 0.00 in 0 W/m2
02:04 60.3 °F 54.8 °F 29.98 in Calm   1 mph 82% 0.00 in 0 W/m2
02:09 60.1 °F 54.8 °F 29.98 in Calm     82.7% 0.00 in 0 W/m2
02:14 59.9 °F 54.8 °F 29.98 in Calm     83.3% 0.00 in 0 W/m2
02:19 59.7 °F 54.9 °F 29.98 in Calm     84% 0.00 in 0 W/m2
02:24 59.5 °F 54.8 °F 29.98 in Calm     84.4% 0.00 in 0 W/m2
02:29 59.4 °F 54.9 °F 29.98 in Calm     85% 0.00 in 0 W/m2
02:34 59.2 °F 54.7 °F 29.98 in Calm     85.2% 0.00 in 0 W/m2
02:39 59.1 °F 54.9 °F 29.97 in Calm     86% 0.00 in 0 W/m2
02:44 58.9 °F 54.8 °F 29.97 in Calm     86% 0.00 in 0 W/m2
02:49 58.8 °F 54.6 °F 29.97 in Calm     86% 0.00 in 0 W/m2
02:54 58.7 °F 54.8 °F 29.97 in Calm     87% 0.00 in 0 W/m2
02:59 58.6 °F 54.8 °F 29.97 in Calm     87% 0.00 in 0 W/m2
03:04 58.5 °F 54.6 °F 29.97 in Calm     87% 0.00 in 0 W/m2
03:09 58.4 °F 54.5 °F 29.97 in Calm     87% 0.00 in 0 W/m2
03:14 58.3 °F 54.6 °F 29.97 in Calm     87.5% 0.00 in 0 W/m2
03:19 58.2 °F 54.7 °F 29.97 in Calm     88% 0.00 in 0 W/m2
03:24 58.2 °F 54.6 °F 29.96 in Calm     88% 0.00 in 0 W/m2
03:29 58.1 °F 54.6 °F 29.96 in Calm     88% 0.00 in 0 W/m2
03:34 58 °F 54.5 °F 29.96 in Calm     88.2% 0.00 in 0 W/m2
03:39 57.9 °F 54.6 °F 29.96 in Calm     88.7% 0.00 in 0 W/m2
03:44 57.8 °F 54.6 °F 29.96 in Calm     89% 0.00 in 0 W/m2
03:49 57.7 °F 54.5 °F 29.96 in Calm     89% 0.00 in 0 W/m2
03:54 57.5 °F 54.3 °F 29.97 in Calm     89% 0.00 in 0 W/m2
03:59 57.4 °F 54.2 °F 29.97 in Calm     89% 0.00 in 0 W/m2
04:00 57.3 °F 54.1 °F 29.97 in Calm     89% 0.00 in 0 W/m2
04:09 57.2 °F 54.2 °F 29.97 in Calm     89.8% 0.00 in 0 W/m2
04:14 57.1 °F 54.2 °F 29.97 in Calm     90% 0.00 in 0 W/m2
04:19 57 °F 54.1 °F 29.96 in Calm     90% 0.00 in 0 W/m2
04:24 56.9 °F 54 °F 29.96 in Calm     90% 0.00 in 0 W/m2
04:29 56.8 °F 53.9 °F 29.96 in Calm     90% 0.00 in 0 W/m2
04:34 56.7 °F 53.8 °F 29.96 in Calm     90% 0.00 in 0 W/m2
04:39 56.6 °F 53.7 °F 29.97 in Calm     90% 0.00 in 0 W/m2
04:44 56.5 °F 53.9 °F 29.96 in Calm     90.9% 0.00 in 0 W/m2
04:49 56.5 °F 53.9 °F 29.97 in Calm     91% 0.00 in 0 W/m2
04:54 56.4 °F 53.8 °F 29.97 in Calm     91% 0.00 in 0 W/m2
04:59 56.3 °F 53.7 °F 29.97 in Calm     91% 0.00 in 0 W/m2
05:04 56.2 °F 53.6 °F 29.97 in Calm     91% 0.00 in 0 W/m2
05:09 56.2 °F 53.6 °F 29.96 in Calm     91% 0.00 in 0 W/m2
05:14 56.2 °F 53.8 °F 29.97 in Calm     91.6% 0.00 in 0 W/m2
05:19 56.2 °F 53.9 °F 29.97 in Calm     92% 0.00 in 0 W/m2
05:24 56.2 °F 53.9 °F 29.97 in Calm     92% 0.00 in 0 W/m2
05:29 56.2 °F 53.9 °F 29.97 in Calm     92% 0.00 in 0 W/m2
05:34 56.1 °F 53.8 °F 29.97 in Calm     92% 0.00 in 0 W/m2
05:39 56 °F 53.7 °F 29.97 in Calm     92% 0.00 in 0 W/m2
05:44 56 °F 53.7 °F 29.97 in Calm     92% 0.00 in 0 W/m2
05:49 55.9 °F 53.6 °F 29.97 in Calm     92% 0.00 in 0 W/m2
05:54 55.9 °F 53.6 °F 29.97 in Calm     92% 0.00 in 0 W/m2
05:59 55.9 °F 53.6 °F 29.97 in Calm     92% 0.00 in 0 W/m2
06:04 55.7 °F 53.4 °F 29.97 in Calm     92% 0.00 in 0 W/m2
06:09 55.7 °F 53.4 °F 29.97 in Calm     92% 0.00 in 0 W/m2
06:14 55.7 °F 53.6 °F 29.97 in Calm     92.5% 0.00 in 0 W/m2
06:19 55.7 °F 53.7 °F 29.98 in Calm     93% 0.00 in 0 W/m2
06:24 55.8 °F 53.8 °F 29.98 in WNW 0.2 mph 2 mph 93% 0.00 in 5 W/m2
06:29 55.8 °F 53.8 °F 29.98 in Calm   2 mph 93% 0.00 in 7 W/m2
06:34 55.9 °F 53.9 °F 29.98 in Calm   2 mph 93% 0.00 in 9 W/m2
06:39 55.9 °F 54 °F 29.98 in WNW 0.3 mph 2 mph 93% 0.00 in 11 W/m2
06:44 56 °F 54 °F 29.98 in Calm   2 mph 93% 0.00 in 12 W/m2
06:49 56 °F 54 °F 29.98 in Calm   2 mph 93% 0.00 in 16 W/m2
06:54 56 °F 54 °F 29.99 in Calm   2 mph 93% 0.00 in 16 W/m2
06:59 56 °F 54 °F 29.99 in Calm   2 mph 93% 0.00 in 18 W/m2
07:04 56 °F 54 °F 29.99 in Calm   2 mph 93% 0.00 in 19 W/m2
07:09 56.2 °F 54.2 °F 29.98 in Calm     93% 0.00 in 23 W/m2
07:14 56.4 °F 54.4 °F 29.99 in Calm   1 mph 93% 0.00 in 25 W/m2
07:19 56.7 °F 54.7 °F 29.99 in Calm   1 mph 93% 0.00 in 26 W/m2
07:24 57 °F 55 °F 29.99 in Calm   1 mph 93% 0.00 in 26 W/m2
07:29 57.4 °F 55.4 °F 29.99 in Calm   1 mph 93% 0.00 in 28 W/m2
07:34 57.7 °F 55.7 °F 29.99 in WNW 0.1 mph 2 mph 93% 0.00 in 28 W/m2
07:39 57.9 °F 55.9 °F 29.99 in West 0.3 mph 4 mph 93% 0.00 in 30 W/m2
07:44 58.3 °F 56.2 °F 30.00 in Calm   4 mph 92.8% 0.00 in 33 W/m2
07:49 58.5 °F 56.4 °F 30.00 in West 0.1 mph 4 mph 92.7% 0.00 in 51 W/m2
07:54 58.8 °F 56.4 °F 30.00 in Calm   4 mph 92% 0.00 in 42 W/m2
07:59 59.1 °F 56.7 °F 30.00 in Calm   4 mph 92% 0.00 in 46 W/m2
08:00 59.2 °F 56.9 °F 30.00 in Calm   4 mph 92% 0.00 in 46 W/m2
08:09 59.7 °F 57.1 °F 30.00 in Calm     91% 0.00 in 58 W/m2
08:14 60.1 °F 57.4 °F 30.00 in West 0.3 mph 3 mph 90.8% 0.00 in 69 W/m2
08:19 60.4 °F 57.5 °F 30.00 in WNW 0.6 mph 5 mph 90% 0.00 in 91 W/m2
08:24 60.8 °F 57.6 °F 30.00 in Calm   5 mph 89.2% 0.00 in 346 W/m2
08:29 61.3 °F 57.9 °F 30.00 in WNW 0.3 mph 5 mph 88.5% 0.00 in 364 W/m2
08:34 61.9 °F 58.2 °F 30.00 in WNW 0.1 mph 5 mph 87.5% 0.00 in 381 W/m2
08:39 62.8 °F 58.8 °F 30.00 in WNW 0.6 mph 4 mph 86.6% 0.00 in 396 W/m2
08:44 63.9 °F 59 °F 30.00 in WNW 1.8 mph 9 mph 84.2% 0.00 in 411 W/m2
08:49 64.9 °F 59.3 °F 30.00 in WNW 1.2 mph 9 mph 82% 0.00 in 427 W/m2
08:54 65.9 °F 60.2 °F 30.00 in WNW 0.6 mph 9 mph 81.7% 0.00 in 441 W/m2
08:59 66.7 °F 59.9 °F 30.00 in WNW 1 mph 9 mph 78.7% 0.00 in 457 W/m2
09:04 67.5 °F 60.3 °F 30.00 in WNW 0.3 mph 9 mph 77.5% 0.00 in 469 W/m2
09:09 68.2 °F 60.3 °F 30.00 in WNW 1.2 mph 5 mph 75.9% 0.00 in 487 W/m2
09:14 68.8 °F 60.6 °F 30.00 in WNW 0.3 mph 5 mph 75% 0.00 in 496 W/m2
09:19 69.4 °F 61 °F 30.00 in WNW 1 mph 5 mph 74.4% 0.00 in 510 W/m2
09:24 70 °F 60.8 °F 30.00 in WNW 0.8 mph 6 mph 72.6% 0.00 in 524 W/m2
09:29 70.5 °F 61.7 °F 30.00 in Calm   6 mph 73.7% 0.00 in 540 W/m2
09:34 71.1 °F 61.9 °F 30.00 in West 1.2 mph 6 mph 72.9% 0.00 in 552 W/m2
09:39 71.6 °F 62.1 °F 30.00 in WNW 1.9 mph 7 mph 71.8% 0.00 in 568 W/m2
09:44 72.2 °F 62 °F 30.00 in West 1.2 mph 7 mph 70.5% 0.00 in 584 W/m2
09:49 72.7 °F 63 °F 29.99 in West 1.2 mph 7 mph 71.4% 0.00 in 594 W/m2
09:54 73.2 °F 62.3 °F 30.00 in WSW 1.6 mph 9 mph 68.7% 0.00 in 606 W/m2
09:59 73.6 °F 62.7 °F 30.00 in WNW 0.7 mph 9 mph 68.7% 0.00 in 621 W/m2
10:04 74.2 °F 62.8 °F 30.00 in WNW 3.9 mph 12 mph 67.7% 0.00 in 629 W/m2
10:09 74.3 °F 61.9 °F 30.00 in WNW 4.1 mph 12 mph 65.3% 0.00 in 640 W/m2
10:14 74.2 °F 61.6 °F 30.00 in WNW 4.2 mph 12 mph 64.8% 0.00 in 657 W/m2
10:19 74.3 °F 61.9 °F 30.00 in WNW 4 mph 12 mph 65.4% 0.00 in 668 W/m2
10:24 74.4 °F 62.4 °F 30.00 in WNW 2.9 mph 12 mph 66.2% 0.00 in 680 W/m2
10:29 74.7 °F 62.7 °F 30.00 in WNW 2.6 mph 12 mph 66.3% 0.00 in 687 W/m2
10:34 75 °F 62 °F 30.00 in WNW 3.6 mph 12 mph 64% 0.00 in 698 W/m2
10:39 75.1 °F 61.6 °F 30.00 in WNW 4 mph 10 mph 62.8% 0.00 in 710 W/m2
10:44 75.2 °F 61.3 °F 29.99 in WNW 5 mph 12 mph 61.9% 0.00 in 717 W/m2
10:49 75.2 °F 61 °F 29.99 in NW 3.4 mph 12 mph 61.5% 0.00 in 724 W/m2
10:54 75.5 °F 61.5 °F 29.99 in WNW 1.9 mph 12 mph 61.9% 0.00 in 735 W/m2
10:59 75.7 °F 60.5 °F 29.99 in West 3.1 mph 12 mph 59.4% 0.00 in 744 W/m2
11:04 76 °F 61.9 °F 29.99 in NW 1.3 mph 12 mph 61.7% 0.00 in 752 W/m2
11:09 76.7 °F 61.9 °F 29.99 in NW 0.7 mph 6 mph 60.3% 0.00 in 763 W/m2
11:14 77.2 °F 62.2 °F 29.98 in NW 1.5 mph 6 mph 59.8% 0.00 in 773 W/m2
11:19 77.4 °F 61.3 °F 29.98 in WNW 3.8 mph 9 mph 57.7% 0.00 in 782 W/m2
11:24 77.2 °F 61.4 °F 29.98 in WNW 2.6 mph 9 mph 58.1% 0.00 in 786 W/m2
11:29 77.4 °F 62 °F 29.98 in WNW 3.3 mph 9 mph 59.1% 0.00 in 791 W/m2
11:34 77.6 °F 61.6 °F 29.98 in NNW 2.3 mph 9 mph 57.8% 0.00 in 800 W/m2
11:39 77.6 °F 61 °F 29.97 in NW 2.6 mph 10 mph 56.6% 0.00 in 809 W/m2
11:44 77.5 °F 60.7 °F 29.97 in WNW 2.8 mph 10 mph 56.2% 0.00 in 812 W/m2
11:49 77.4 °F 60.5 °F 29.97 in NW 3.5 mph 11 mph 56.1% 0.00 in 819 W/m2
11:54 77.1 °F 59.8 °F 29.97 in WNW 2.6 mph 11 mph 55.2% 0.00 in 823 W/m2
11:59 76.7 °F 59.7 °F 29.97 in NW 2.8 mph 12 mph 55.6% 0.00 in 738 W/m2
12:00 76.6 °F 59.8 °F 29.97 in NNW 3 mph 12 mph 56% 0.00 in 120 W/m2
12:09 76.2 °F 59.7 °F 29.97 in WNW 2.1 mph 7 mph 56.8% 0.00 in 169 W/m2
12:14 75.9 °F 59.2 °F 29.96 in NNW 2.9 mph 9 mph 56.2% 0.00 in 223 W/m2
12:19 75.5 °F 58.9 °F 29.96 in NE 1 mph 9 mph 56.5% 0.00 in 202 W/m2
12:22 75.2 °F 59.7 °F 29.96 in NNW 1.3 mph 9 mph 58.4% 0.00 in 234 W/m2
12:30 75.1 °F 60.3 °F 29.95 in WNW 2 mph 11 mph 60% 0.00 in 182 W/m2
13:00 76.4 °F 61.5 °F 29.94 in WNW 1 mph 9 mph 60% 0.00 in 311 W/m2
13:30 76.8 °F 60.4 °F 29.93 in WNW 2 mph 10 mph 57% 0.00 in 293 W/m2
14:00 77.1 °F 60.2 °F 29.92 in WSW 2 mph 12 mph 56% 0.00 in 368 W/m2
14:30 78.8 °F 59.7 °F 29.91 in NW 2 mph 10 mph 52% 0.00 in 826 W/m2
15:00 79.9 °F 60.7 °F 29.90 in West 2 mph 10 mph 52% 0.00 in 797 W/m2
15:30 79.8 °F 59.5 °F 29.89 in WNW 3 mph 10 mph 50% 0.00 in 720 W/m2
16:09 79.5 °F 60.4 °F 29.89 in WSW 2.3 mph 6 mph 52.1% 0.00 in 72 W/m2
16:14 79.2 °F 60.4 °F 29.89 in West 1.2 mph 6 mph 52.7% 0.00 in 63 W/m2
16:19 78.7 °F 60.2 °F 29.89 in NW 1.7 mph 6 mph 53% 0.00 in 84 W/m2
16:24 78.2 °F 60.3 °F 29.89 in NW 2.3 mph 9 mph 54% 0.00 in 63 W/m2
16:29 77.8 °F 59.7 °F 29.89 in NNW 1.7 mph 9 mph 53.6% 0.00 in 40 W/m2
16:34 77.7 °F 60.6 °F 29.89 in NNW 1.2 mph 9 mph 55.6% 0.00 in 37 W/m2
16:39 77.8 °F 60.2 °F 29.88 in NNW 1 mph 4 mph 54.6% 0.00 in 37 W/m2
16:44 77.7 °F 60.1 °F 29.88 in NNW 1 mph 5 mph 54.6% 0.00 in 37 W/m2
16:49 77.7 °F 60.9 °F 29.88 in NNW 1.3 mph 5 mph 56.3% 0.00 in 35 W/m2
16:54 77.8 °F 60.8 °F 29.88 in NW 1.2 mph 5 mph 56% 0.00 in 35 W/m2
16:59 77.8 °F 60.6 °F 29.88 in NW 0.8 mph 5 mph 55.5% 0.00 in 33 W/m2
17:04 77.7 °F 60.8 °F 29.88 in NW 0.4 mph 5 mph 56% 0.00 in 32 W/m2
17:09 77.6 °F 60.9 °F 29.88 in NW 1.7 mph 7 mph 56.4% 0.00 in 32 W/m2
17:14 77.6 °F 60.4 °F 29.88 in WNW 1.5 mph 7 mph 55.5% 0.00 in 30 W/m2
17:19 77.5 °F 60.7 °F 29.88 in WNW 0.6 mph 7 mph 56.2% 0.00 in 30 W/m2
17:24 77.5 °F 60.7 °F 29.88 in WNW 3 mph 7 mph 56.4% 0.00 in 28 W/m2
17:29 77.3 °F 60.4 °F 29.88 in WNW 1.9 mph 7 mph 56% 0.00 in 28 W/m2
17:34 77.3 °F 60.9 °F 29.87 in WNW 0.8 mph 7 mph 57% 0.00 in 26 W/m2
17:39 77.2 °F 60.6 °F 29.87 in West 0.8 mph 5 mph 56.5% 0.00 in 26 W/m2
17:44 77.1 °F 60.2 °F 29.87 in West 1.6 mph 6 mph 55.9% 0.00 in 26 W/m2
17:49 77 °F 60.4 °F 29.87 in WNW 0.6 mph 6 mph 56.5% 0.00 in 25 W/m2
17:54 76.9 °F 60.1 °F 29.87 in WNW 0.3 mph 6 mph 56.2% 0.00 in 25 W/m2
17:59 76.8 °F 60.3 °F 29.87 in Calm   6 mph 56.8% 0.00 in 23 W/m2
18:04 76.6 °F 60.3 °F 29.87 in WNW 0.1 mph 6 mph 57% 0.00 in 23 W/m2
18:09 76.5 °F 60.4 °F 29.87 in WNW 0.1 mph 2 mph 57.4% 0.00 in 21 W/m2
18:14 76.5 °F 61 °F 29.87 in WNW 0.6 mph 2 mph 58.8% 0.00 in 21 W/m2
18:19 76.4 °F 60.8 °F 29.88 in Calm   2 mph 58.6% 0.00 in 19 W/m2
18:24 76.2 °F 61 °F 29.88 in WNW 0.9 mph 4 mph 59.4% 0.00 in 19 W/m2
18:29 76.1 °F 60.8 °F 29.88 in WNW 0.3 mph 4 mph 59.2% 0.00 in 18 W/m2
18:34 75.9 °F 61.1 °F 29.88 in Calm   4 mph 60% 0.00 in 16 W/m2
18:39 75.8 °F 60.6 °F 29.88 in Calm     59.3% 0.00 in 14 W/m2
18:44 75.7 °F 60.6 °F 29.88 in Calm     59.5% 0.00 in 14 W/m2
18:49 75.5 °F 61.1 °F 29.88 in Calm   1 mph 60.8% 0.00 in 12 W/m2
18:54 75.4 °F 61 °F 29.88 in Calm   1 mph 61% 0.00 in 11 W/m2
18:59 75.2 °F 61.1 °F 29.89 in Calm   1 mph 61.7% 0.00 in 9 W/m2
19:04 75 °F 61.3 °F 29.89 in Calm   1 mph 62.5% 0.00 in 7 W/m2
19:09 74.7 °F 61.3 °F 29.89 in Calm     63.2% 0.00 in 5 W/m2
19:14 74.4 °F 61.5 °F 29.89 in Calm     64% 0.00 in 0 W/m2
19:19 74.1 °F 61.9 °F 29.90 in Calm     65.6% 0.00 in 0 W/m2
19:24 73.8 °F 61.8 °F 29.90 in Calm     66.1% 0.00 in 0 W/m2
19:29 73.5 °F 61.9 °F 29.90 in Calm     67% 0.00 in 0 W/m2
19:34 73.1 °F 62 °F 29.90 in Calm     68% 0.00 in 0 W/m2
19:39 72.8 °F 62 °F 29.91 in Calm     69% 0.00 in 0 W/m2
19:44 72.3 °F 61.7 °F 29.91 in Calm     69.1% 0.00 in 0 W/m2
19:49 72 °F 61.7 °F 29.91 in Calm     70.1% 0.00 in 0 W/m2
19:54 71.6 °F 61.8 °F 29.91 in Calm     71.3% 0.00 in 0 W/m2
19:59 71.2 °F 61.8 °F 29.91 in Calm     72.2% 0.00 in 0 W/m2
20:09 70.4 °F 62.3 °F 29.91 in Calm     75.4% 0.00 in 0 W/m2
20:14 70 °F 62.1 °F 29.92 in Calm     76% 0.00 in 0 W/m2
20:19 69.6 °F 61.7 °F 29.92 in Calm     75.9% 0.00 in 0 W/m2
20:24 69.3 °F 61.2 °F 29.92 in Calm     75.6% 0.00 in 0 W/m2
20:29 69 °F 61.1 °F 29.91 in Calm     76% 0.00 in 0 W/m2
20:34 68.7 °F 61 °F 29.91 in Calm     76.4% 0.00 in 0 W/m2
20:39 68.5 °F 61.1 °F 29.91 in Calm     77% 0.00 in 0 W/m2
20:44 68.4 °F 61.1 °F 29.91 in Calm     77.5% 0.00 in 0 W/m2
20:49 68.2 °F 61.2 °F 29.92 in Calm     78.2% 0.00 in 0 W/m2
20:54 68.1 °F 61.3 °F 29.92 in Calm     79% 0.00 in 0 W/m2
20:59 67.9 °F 61.1 °F 29.92 in Calm     79% 0.00 in 0 W/m2
21:04 67.7 °F 60.9 °F 29.92 in Calm     79% 0.00 in 0 W/m2
21:09 67.5 °F 60.8 °F 29.92 in Calm     79% 0.00 in 0 W/m2
21:14 67.3 °F 60.8 °F 29.92 in Calm     79.6% 0.00 in 0 W/m2
21:19 67.2 °F 61.1 °F 29.92 in Calm     81% 0.00 in 0 W/m2
21:24 66.9 °F 61.1 °F 29.92 in Calm     81.5% 0.00 in 0 W/m2
21:29 66.7 °F 61.1 °F 29.91 in Calm     82% 0.00 in 0 W/m2
21:34 66.5 °F 60.8 °F 29.91 in Calm     82% 0.00 in 0 W/m2
21:39 66.3 °F 60.7 °F 29.91 in Calm     82.1% 0.00 in 0 W/m2
21:44 66.1 °F 60.9 °F 29.91 in Calm     83.2% 0.00 in 0 W/m2
21:49 66 °F 61 °F 29.91 in Calm     84% 0.00 in 0 W/m2
21:54 65.8 °F 60.8 °F 29.91 in Calm     84% 0.00 in 0 W/m2
21:59 65.6 °F 60.7 °F 29.91 in Calm     84% 0.00 in 0 W/m2
22:04 65.4 °F 60.7 °F 29.91 in Calm     84.7% 0.00 in 0 W/m2
22:09 65.3 °F 60.6 °F 29.91 in Calm     85% 0.00 in 0 W/m2
22:14 65.1 °F 60.5 °F 29.91 in Calm     85% 0.00 in 0 W/m2
22:19 65 °F 60.6 °F 29.91 in Calm     85.7% 0.00 in 0 W/m2
22:24 64.8 °F 60.6 °F 29.91 in Calm     86% 0.00 in 0 W/m2
22:29 64.7 °F 60.5 °F 29.91 in Calm     86% 0.00 in 0 W/m2
22:34 64.7 °F 60.6 °F 29.91 in Calm     86.6% 0.00 in 0 W/m2
22:39 64.6 °F 60.6 °F 29.91 in Calm     87% 0.00 in 0 W/m2
22:43 64.5 °F 60.5 °F 29.91 in Calm     87% 0.00 in 0 W/m2
Hartford County Weather
Compliments of Weather Underground - 2 mb